Time;durP1;ratioP1;P1;durP2;ratioP2;P2;SDS_P1;SDS_P2;PMS_P1;PMS_P2;Temp;Humidity;BMP_temperature;BMP_pressure;BME280_temperature;BME280_humidity;BME280_pressure;Samples;Min_cycle;Max_cycle;Signal;HPM_P1;HPM_P2
2023/07/06 00:01:58;;;;;;;1999.90;999.90;;;15.00;99.90;;;;;;5034882;28;20030;-74
2023/07/06 00:04:23;;;;;;;1999.90;999.90;;;14.90;99.90;;;;;;5035023;28;20112;-74
2023/07/06 00:06:49;;;;;;;1999.90;999.90;;;14.80;99.90;;;;;;5035148;28;20038;-74
2023/07/06 00:09:15;;;;;;;1999.90;999.90;;;14.80;99.90;;;;;;5034890;28;20054;-74
2023/07/06 00:11:41;;;;;;;1999.90;999.90;;;14.80;99.90;;;;;;5034685;28;20527;-74
2023/07/06 00:14:09;;;;;;;1999.90;999.90;;;14.80;99.90;;;;;;5034826;28;20495;-74
2023/07/06 00:16:35;;;;;;;1999.90;999.90;;;14.80;99.90;;;;;;5034132;28;20046;-74
2023/07/06 00:19:01;;;;;;;1999.90;999.90;;;14.80;99.90;;;;;;5034867;28;20439;-75
2023/07/06 00:21:27;;;;;;;1999.90;999.90;;;14.80;99.90;;;;;;5034490;28;20491;-74
2023/07/06 00:23:53;;;;;;;1999.90;999.90;;;14.90;99.90;;;;;;5034694;28;20498;-74
2023/07/06 00:26:20;;;;;;;1999.90;999.90;;;14.90;99.90;;;;;;5034647;28;20041;-74
2023/07/06 00:28:49;;;;;;;1999.90;999.90;;;15.00;99.90;;;;;;5034633;28;20030;-74
2023/07/06 00:31:21;;;;;;;1999.90;999.90;;;15.00;99.90;;;;;;5034099;28;20029;-74
2023/07/06 00:33:48;;;;;;;1999.90;999.90;;;15.00;99.90;;;;;;5034893;28;20152;-74
2023/07/06 00:36:15;;;;;;;1999.90;999.90;;;15.10;99.90;;;;;;5034516;28;20100;-74
2023/07/06 00:38:40;;;;;;;1999.90;999.90;;;15.00;99.90;;;;;;5034620;28;20475;-73
2023/07/06 00:41:07;;;;;;;1999.90;999.90;;;15.00;99.90;;;;;;5034092;28;20042;-74
2023/07/06 00:43:51;;;;;;;1999.90;999.90;;;14.90;99.90;;;;;;5034358;28;20040;-73
2023/07/06 00:46:17;;;;;;;1999.90;999.90;;;14.90;99.90;;;;;;5034186;28;20041;-74
2023/07/06 00:48:45;;;;;;;1999.90;999.90;;;14.90;99.90;;;;;;5034331;28;20033;-74
2023/07/06 00:51:16;;;;;;;1999.90;999.90;;;14.90;99.90;;;;;;5033875;28;20087;-74
2023/07/06 00:53:46;;;;;;;1999.90;999.90;;;14.90;99.90;;;;;;5034435;28;20057;-74
2023/07/06 00:56:16;;;;;;;1999.90;999.90;;;14.90;99.90;;;;;;5033794;28;20108;-74
2023/07/06 00:58:47;;;;;;;1999.90;999.90;;;14.90;99.90;;;;;;5034350;28;20025;-74
2023/07/06 01:01:19;;;;;;;1999.90;999.90;;;14.90;99.90;;;;;;5033162;28;20044;-74
2023/07/06 01:03:52;;;;;;;1999.90;999.90;;;14.80;99.90;;;;;;5033976;28;20029;-73
2023/07/06 01:06:29;;;;;;;1999.90;999.90;;;14.70;99.90;;;;;;5033082;28;20045;-74
2023/07/06 01:08:56;;;;;;;1999.90;999.90;;;14.70;99.90;;;;;;5033889;28;20037;-74
2023/07/06 01:11:22;;;;;;;1999.90;999.90;;;14.60;99.90;;;;;;5032946;28;20121;-74
2023/07/06 01:13:49;;;;;;;1999.90;999.90;;;14.50;99.90;;;;;;5032626;28;20089;-73
2023/07/06 01:16:39;;;;;;;1999.90;999.90;;;14.40;99.90;;;;;;5033290;28;20042;-74
2023/07/06 01:19:42;;;;;;;1999.90;999.90;;;14.30;99.90;;;;;;5037463;28;20547;-74
2023/07/06 01:22:32;;;;;;;1999.90;999.90;;;14.30;99.90;;;;;;5036985;28;20038;-73
2023/07/06 01:25:06;;;;;;;1999.90;999.90;;;14.30;99.90;;;;;;5037241;28;20129;-74
2023/07/06 01:27:55;;;;;;;1999.90;999.90;;;14.30;99.90;;;;;;5036079;28;20484;-74
2023/07/06 01:30:41;;;;;;;1999.90;999.90;;;14.20;99.90;;;;;;5037324;28;20033;-74
2023/07/06 01:33:15;;;;;;;1999.90;999.90;;;14.20;99.90;;;;;;5037207;28;20075;-74
2023/07/06 01:35:57;;;;;;;1999.90;999.90;;;14.20;99.90;;;;;;5037045;28;20140;-73
2023/07/06 01:38:23;;;;;;;1999.90;999.90;;;14.20;99.90;;;;;;5037441;28;20433;-73
2023/07/06 01:40:49;;;;;;;1999.90;999.90;;;14.10;99.90;;;;;;5037272;28;20166;-74
2023/07/06 01:43:16;;;;;;;1999.90;999.90;;;14.10;99.90;;;;;;5036945;28;20032;-74
2023/07/06 01:45:42;;;;;;;1999.90;999.90;;;14.20;99.90;;;;;;5036198;28;20037;-74
2023/07/06 01:48:10;;;;;;;1999.90;999.90;;;14.20;99.90;;;;;;5037129;28;20551;-73
2023/07/06 01:51:00;;;;;;;1999.90;999.90;;;14.20;99.90;;;;;;5037106;28;20034;-74
2023/07/06 01:53:37;;;;;;;1999.90;999.90;;;14.20;99.90;;;;;;5037081;28;20168;-74
2023/07/06 01:56:13;;;;;;;1999.90;999.90;;;14.30;99.90;;;;;;5036952;28;20037;-73
2023/07/06 01:58:52;;;;;;;1999.90;999.90;;;14.20;99.90;;;;;;5037340;28;20038;-74
2023/07/06 02:01:23;;;;;;;1999.90;999.90;;;14.30;99.90;;;;;;5036913;28;20025;-74
2023/07/06 02:03:53;;;;;;;1999.90;999.90;;;14.30;99.90;;;;;;5036589;28;20124;-74
2023/07/06 02:06:19;;;;;;;1999.90;999.90;;;14.30;99.90;;;;;;5036684;28;20585;-74
2023/07/06 02:08:45;;;;;;;1999.90;999.90;;;14.20;99.90;;;;;;5035491;28;20037;-74
2023/07/06 02:11:18;;;;;;;1999.90;999.90;;;14.20;99.90;;;;;;5036474;28;20034;-74
2023/07/06 02:13:43;;;;;;;1999.90;999.90;;;14.20;99.90;;;;;;5035209;28;20078;-73
2023/07/06 02:16:09;;;;;;;1999.90;999.90;;;14.20;99.90;;;;;;5036607;28;20112;-72
2023/07/06 02:18:35;;;;;;;1999.90;999.90;;;14.20;99.90;;;;;;5036834;28;20057;-72
2023/07/06 02:21:02;;;;;;;1999.90;999.90;;;14.20;99.90;;;;;;5036498;28;20034;-72
2023/07/06 02:23:28;;;;;;;1999.90;999.90;;;14.10;99.90;;;;;;5035212;28;20029;-73
2023/07/06 02:25:54;;;;;;;1999.90;999.90;;;14.10;99.90;;;;;;5036646;28;20578;-74
2023/07/06 02:28:23;;;;;;;1999.90;999.90;;;14.10;99.90;;;;;;5033984;28;20057;-72
2023/07/06 02:30:50;;;;;;;1999.90;999.90;;;14.00;99.90;;;;;;5036228;28;20813;-72
2023/07/06 02:33:16;;;;;;;1999.90;999.90;;;14.00;99.90;;;;;;5035841;28;20037;-73
2023/07/06 02:35:45;;;;;;;1999.90;999.90;;;14.00;99.90;;;;;;5036466;28;20503;-72
2023/07/06 02:38:18;;;;;;;1999.90;999.90;;;14.00;99.90;;;;;;5036509;28;20684;-74
2023/07/06 02:40:44;;;;;;;1999.90;999.90;;;14.00;99.90;;;;;;5036545;28;20042;-73
2023/07/06 02:43:09;;;;;;;1999.90;999.90;;;14.00;99.90;;;;;;5036175;28;20034;-74
2023/07/06 02:45:36;;;;;;;1999.90;999.90;;;13.90;99.90;;;;;;5036087;28;20053;-72
2023/07/06 02:48:03;;;;;;;1999.90;999.90;;;13.90;99.90;;;;;;5036009;28;20042;-72
2023/07/06 02:50:30;;;;;;;1999.90;999.90;;;13.90;99.90;;;;;;5036352;28;20034;-72
2023/07/06 02:52:56;;;;;;;1999.90;999.90;;;13.80;99.90;;;;;;5036030;28;20025;-72
2023/07/06 02:55:26;;;;;;;1999.90;999.90;;;13.80;99.90;;;;;;5036155;28;20034;-72
2023/07/06 02:57:52;;;;;;;1999.90;999.90;;;13.80;99.90;;;;;;5036215;28;20499;-72
2023/07/06 03:00:17;;;;;;;1999.90;999.90;;;13.80;99.90;;;;;;5035687;28;20124;-72
2023/07/06 03:02:44;;;;;;;1999.90;999.90;;;13.70;99.90;;;;;;5035858;28;20076;-73
2023/07/06 03:05:11;;;;;;;1999.90;999.90;;;13.60;99.90;;;;;;5036089;28;20041;-73
2023/07/06 03:07:37;;;;;;;1999.90;999.90;;;13.70;99.90;;;;;;5035822;28;20080;-72
2023/07/06 03:10:04;;;;;;;1999.90;999.90;;;13.60;99.90;;;;;;5035915;28;20129;-72
2023/07/06 03:12:33;;;;;;;1999.90;999.90;;;13.60;99.90;;;;;;5035523;28;20089;-73
2023/07/06 03:15:17;;;;;;;1999.90;999.90;;;13.50;99.90;;;;;;5033792;28;20404;-72
2023/07/06 03:17:48;;;;;;;1999.90;999.90;;;13.50;99.90;;;;;;5035763;28;20045;-73
2023/07/06 03:20:15;;;;;;;1999.90;999.90;;;13.40;99.90;;;;;;5036038;28;20030;-72
2023/07/06 03:22:45;;;;;;;1999.90;999.90;;;13.40;99.90;;;;;;5035297;28;20088;-72
2023/07/06 03:25:13;;;;;;;1999.90;999.90;;;13.30;99.90;;;;;;5035499;28;20452;-73
2023/07/06 03:27:40;;;;;;;1999.90;999.90;;;13.30;99.90;;;;;;5035743;28;20034;-73
2023/07/06 03:30:09;;;;;;;1999.90;999.90;;;13.20;99.90;;;;;;5035686;28;20504;-72
2023/07/06 03:32:37;;;;;;;1999.90;999.90;;;13.20;99.90;;;;;;5034043;28;20475;-73
2023/07/06 03:35:05;;;;;;;1999.90;999.90;;;13.20;99.90;;;;;;5035270;28;20036;-72
2023/07/06 03:37:30;;;;;;;1999.90;999.90;;;13.20;99.90;;;;;;5035526;28;20112;-72
2023/07/06 03:39:56;;;;;;;1999.90;999.90;;;13.30;99.90;;;;;;5035028;28;20042;-73
2023/07/06 03:42:21;;;;;;;1999.90;999.90;;;13.30;99.90;;;;;;5035146;28;20103;-72
2023/07/06 03:44:47;;;;;;;1999.90;999.90;;;13.20;99.90;;;;;;5035217;28;20565;-72
2023/07/06 03:47:14;;;;;;;1999.90;999.90;;;13.30;99.90;;;;;;5035282;28;20030;-72
2023/07/06 03:49:39;;;;;;;1999.90;999.90;;;13.20;99.90;;;;;;5035422;28;20040;-71
2023/07/06 03:52:06;;;;;;;1999.90;999.90;;;13.20;99.90;;;;;;5035058;28;20392;-72
2023/07/06 03:54:31;;;;;;;1999.90;999.90;;;13.20;99.90;;;;;;5033413;28;21109;-72
2023/07/06 03:56:57;;;;;;;1999.90;999.90;;;13.30;99.90;;;;;;5034989;28;20037;-72
2023/07/06 03:59:23;;;;;;;1999.90;999.90;;;13.40;99.90;;;;;;5035306;28;20033;-73
2023/07/06 04:01:49;;;;;;;1999.90;999.90;;;13.50;99.90;;;;;;5035137;28;20526;-72
2023/07/06 04:04:18;;;;;;;1999.90;999.90;;;13.60;99.90;;;;;;5035256;28;20042;-72
2023/07/06 04:06:44;;;;;;;1999.90;999.90;;;13.60;99.90;;;;;;5035069;28;20029;-72
2023/07/06 04:09:10;;;;;;;1999.90;999.90;;;13.50;99.90;;;;;;5035070;28;20034;-72
2023/07/06 04:11:36;;;;;;;1999.90;999.90;;;13.40;99.90;;;;;;5034857;28;20480;-72
2023/07/06 04:14:03;;;;;;;1999.90;999.90;;;13.40;99.90;;;;;;5035103;28;20038;-72
2023/07/06 04:16:29;;;;;;;1999.90;999.90;;;13.40;99.90;;;;;;5034487;28;20488;-72
2023/07/06 04:18:55;;;;;;;1999.90;999.90;;;13.40;99.90;;;;;;5034978;28;20403;-72
2023/07/06 04:21:22;;;;;;;1999.90;999.90;;;13.40;99.90;;;;;;5034759;28;20022;-72
2023/07/06 04:23:48;;;;;;;1999.90;999.90;;;13.40;99.90;;;;;;5033264;28;20033;-72
2023/07/06 04:26:19;;;;;;;1999.90;999.90;;;13.40;99.90;;;;;;5034783;28;20528;-72
2023/07/06 04:28:47;;;;;;;1999.90;999.90;;;13.30;99.90;;;;;;5034716;28;20038;-72
2023/07/06 04:31:15;;;;;;;1999.90;999.90;;;13.30;99.90;;;;;;5034566;28;20037;-72
2023/07/06 04:33:41;;;;;;;1999.90;999.90;;;13.40;99.90;;;;;;5034750;28;20105;-72
2023/07/06 04:36:09;;;;;;;1999.90;999.90;;;13.50;99.90;;;;;;5034520;28;20391;-72
2023/07/06 04:38:35;;;;;;;1999.90;999.90;;;13.70;99.90;;;;;;5034574;28;20494;-73
2023/07/06 04:41:01;;;;;;;1999.90;999.90;;;13.60;99.90;;;;;;5034358;28;20044;-72
2023/07/06 04:43:26;;;;;;;1999.90;999.90;;;13.60;99.90;;;;;;5034776;28;20038;-72
2023/07/06 04:45:55;;;;;;;1999.90;999.90;;;13.60;99.90;;;;;;5034279;28;20070;-74
2023/07/06 04:48:21;;;;;;;1999.90;999.90;;;13.50;99.90;;;;;;5034334;28;20026;-72
2023/07/06 04:50:50;;;;;;;1999.90;999.90;;;13.60;99.90;;;;;;5034125;28;20415;-74
2023/07/06 04:53:16;;;;;;;1999.90;999.90;;;13.70;99.90;;;;;;5033469;28;20034;-72
2023/07/06 04:55:42;;;;;;;1999.90;999.90;;;13.70;99.90;;;;;;5032304;28;20100;-72
2023/07/06 04:58:09;;;;;;;1999.90;999.90;;;13.80;99.90;;;;;;5034358;28;20038;-72
2023/07/06 05:00:37;;;;;;;1999.90;999.90;;;13.80;99.90;;;;;;5034097;28;20547;-72
2023/07/06 05:03:06;;;;;;;1999.90;999.90;;;13.90;99.90;;;;;;5033952;28;20440;-72
2023/07/06 05:05:42;;;;;;;1999.90;999.90;;;14.00;99.90;;;;;;5031450;28;20044;-72
2023/07/06 05:08:10;;;;;;;1999.90;999.90;;;14.00;99.90;;;;;;5032137;28;20025;-72
2023/07/06 05:10:36;;;;;;;1999.90;999.90;;;14.10;99.90;;;;;;5033904;28;20025;-73
2023/07/06 05:13:03;;;;;;;1999.90;999.90;;;14.30;99.90;;;;;;5034012;28;20040;-72
2023/07/06 05:15:29;;;;;;;1999.90;999.90;;;14.50;99.90;;;;;;5033419;28;20069;-72
2023/07/06 05:17:55;;;;;;;1999.90;999.90;;;14.60;99.90;;;;;;5034161;28;20623;-72
2023/07/06 05:20:22;;;;;;;1999.90;999.90;;;14.70;99.90;;;;;;5034127;28;20120;-72
2023/07/06 05:22:48;;;;;;;1999.90;999.90;;;14.80;99.90;;;;;;5032223;28;20030;-73
2023/07/06 05:25:14;;;;;;;1999.90;999.90;;;14.80;99.90;;;;;;5032534;28;20038;-72
2023/07/06 05:27:41;;;;;;;1999.90;999.90;;;14.90;99.90;;;;;;5033794;28;20070;-73
2023/07/06 05:30:07;;;;;;;1999.90;999.90;;;15.00;99.90;;;;;;5033881;28;20160;-72
2023/07/06 05:32:33;;;;;;;1999.90;999.90;;;15.00;99.90;;;;;;5033649;28;20486;-72
2023/07/06 05:34:58;;;;;;;1999.90;999.90;;;15.10;99.90;;;;;;5045201;28;20113;-73
2023/07/06 05:37:24;;;;;;;1999.90;999.90;;;15.10;99.90;;;;;;5033885;28;20109;-72
2023/07/06 05:39:50;;;;;;;1999.90;999.90;;;15.10;99.90;;;;;;5033508;28;20393;-72
2023/07/06 05:42:17;;;;;;;1999.90;999.90;;;15.20;99.90;;;;;;5033318;28;20034;-73
2023/07/06 05:44:44;;;;;;;1999.90;999.90;;;15.30;99.90;;;;;;5033814;28;20555;-72
2023/07/06 05:47:09;;;;;;;1999.90;999.90;;;15.50;99.90;;;;;;5032406;28;20034;-73
2023/07/06 05:49:35;;;;;;;1999.90;999.90;;;15.70;99.90;;;;;;5033888;28;20041;-75
2023/07/06 05:52:01;;;;;;;1999.90;999.90;;;15.80;99.90;;;;;;5033370;28;20054;-73
2023/07/06 05:54:27;;;;;;;1999.90;999.90;;;15.90;99.90;;;;;;5033565;28;20597;-74
2023/07/06 05:56:55;;;;;;;1999.90;999.90;;;16.00;99.90;;;;;;5033120;28;22290;-74
2023/07/06 05:59:24;;;;;;;1999.90;999.90;;;15.90;99.90;;;;;;5031771;28;20034;-74
2023/07/06 06:01:50;;;;;;;1999.90;999.90;;;15.90;99.90;;;;;;5029728;28;20059;-74
2023/07/06 06:04:16;;;;;;;1999.90;999.90;;;16.00;99.90;;;;;;5036131;28;20076;-73
2023/07/06 06:06:46;;;;;;;1999.90;999.90;;;16.20;99.90;;;;;;5018935;28;20101;-74
2023/07/06 06:09:12;;;;;;;1999.90;999.90;;;16.30;99.90;;;;;;5016934;28;20118;-73
2023/07/06 06:11:38;;;;;;;1999.90;999.90;;;16.50;99.90;;;;;;5016804;28;20459;-74
2023/07/06 06:14:04;;;;;;;1999.90;999.90;;;16.60;99.90;;;;;;5016869;28;20085;-74
2023/07/06 06:16:32;;;;;;;1999.90;999.90;;;16.80;99.90;;;;;;5016705;28;20062;-74
2023/07/06 06:18:58;;;;;;;1999.90;999.90;;;16.80;99.90;;;;;;5016966;28;20479;-73
2023/07/06 06:21:24;;;;;;;1999.90;999.90;;;16.90;99.90;;;;;;5017085;28;20500;-74
2023/07/06 06:23:49;;;;;;;1999.90;999.90;;;16.80;99.90;;;;;;5024578;28;20054;-73
2023/07/06 06:26:15;;;;;;;1999.90;999.90;;;16.80;99.90;;;;;;5036280;28;20042;-73
2023/07/06 06:28:41;;;;;;;1999.90;999.90;;;16.80;99.90;;;;;;5036813;28;20030;-72
2023/07/06 06:31:08;;;;;;;1999.90;999.90;;;16.70;99.90;;;;;;5036493;28;20034;-70
2023/07/06 06:33:33;;;;;;;1999.90;999.90;;;16.80;99.90;;;;;;5036531;28;20040;-71
2023/07/06 06:36:00;;;;;;;1999.90;999.90;;;17.00;99.90;;;;;;5036882;28;20537;-75
2023/07/06 06:38:26;;;;;;;1999.90;999.90;;;17.10;99.90;;;;;;5036801;28;20037;-72
2023/07/06 06:40:51;;;;;;;1999.90;999.90;;;17.10;99.90;;;;;;5036783;28;20041;-70
2023/07/06 06:43:17;;;;;;;1999.90;999.90;;;17.20;99.90;;;;;;5036380;28;20104;-71
2023/07/06 06:45:42;;;;;;;1999.90;999.90;;;17.20;99.90;;;;;;5036100;28;20042;-72
2023/07/06 06:48:08;;;;;;;1999.90;999.90;;;17.30;99.90;;;;;;5036337;28;20405;-71
2023/07/06 06:50:33;;;;;;;1999.90;999.90;;;17.50;99.90;;;;;;5036543;28;20029;-71
2023/07/06 06:52:59;;;;;;;1999.90;999.90;;;17.50;99.90;;;;;;5036324;28;20038;-74
2023/07/06 06:55:25;;;;;;;1999.90;999.90;;;17.70;99.90;;;;;;5036356;28;20113;-72
2023/07/06 06:57:52;;;;;;;1999.90;999.90;;;17.80;99.90;;;;;;5036404;28;20099;-72
2023/07/06 07:00:18;;;;;;;1999.90;999.90;;;17.80;99.90;;;;;;5036657;28;20488;-73
2023/07/06 07:02:44;;;;;;;1999.90;999.90;;;18.00;99.90;;;;;;5036116;28;20034;-72
2023/07/06 07:05:12;;;;;;;1999.90;999.90;;;18.20;99.90;;;;;;5036248;28;20038;-73
2023/07/06 07:07:38;;;;;;;1999.90;999.90;;;18.30;99.90;;;;;;5036112;28;20033;-74
2023/07/06 07:10:09;;;;;;;1999.90;999.90;;;18.40;99.50;;;;;;5035866;28;20038;-73
2023/07/06 07:12:38;;;;;;;1999.90;999.90;;;18.60;99.10;;;;;;5035638;28;20068;-73
2023/07/06 07:15:04;;;;;;;1999.90;999.90;;;18.70;98.10;;;;;;5034688;28;20120;-77
2023/07/06 07:17:30;;;;;;;1999.90;999.90;;;18.90;97.80;;;;;;5036304;28;20038;-79
2023/07/06 07:19:56;;;;;;;1999.90;999.90;;;19.10;97.70;;;;;;5036329;28;20042;-73
2023/07/06 07:22:22;;;;;;;1999.90;999.90;;;19.00;96.50;;;;;;5034645;28;20092;-76
2023/07/06 07:24:47;;;;;;;1999.90;999.90;;;19.30;96.40;;;;;;5024853;28;20049;-72
2023/07/06 07:27:13;;;;;;;1999.90;999.90;;;19.40;95.40;;;;;;5026776;28;20037;-70
2023/07/06 07:29:42;;;;;;;1999.90;999.90;;;19.60;95.00;;;;;;5018051;28;20034;-71
2023/07/06 07:32:08;;;;;;;1999.90;999.90;;;19.80;93.90;;;;;;5015347;28;20451;-72
2023/07/06 07:34:34;;;;;;;1999.90;999.90;;;19.90;94.10;;;;;;5026537;28;20044;-70
2023/07/06 07:36:59;;;;;;;1999.90;999.90;;;20.00;93.20;;;;;;5035465;28;20116;-70
2023/07/06 07:39:25;;;;;;;1999.90;999.90;;;20.20;94.00;;;;;;5035639;28;20419;-70
2023/07/06 07:41:52;;;;;;;1999.90;999.90;;;20.30;93.20;;;;;;5033398;28;20034;-70
2023/07/06 07:44:18;;;;;;;1999.90;999.90;;;20.50;92.60;;;;;;5032263;28;20034;-70
2023/07/06 07:46:44;;;;;;;1999.90;999.90;;;20.80;92.70;;;;;;5035666;28;20029;-71
2023/07/06 07:49:10;;;;;;;1999.90;999.90;;;21.00;91.50;;;;;;5035467;28;20029;-71
2023/07/06 07:51:35;;;;;;;1999.90;999.90;;;21.10;92.00;;;;;;5035195;28;20029;-70
2023/07/06 07:54:01;;;;;;;1999.90;999.90;;;21.20;90.40;;;;;;5035121;28;21254;-71
2023/07/06 07:56:27;;;;;;;1999.90;999.90;;;21.40;90.30;;;;;;5035150;28;20436;-71
2023/07/06 07:58:52;;;;;;;1999.90;999.90;;;21.60;90.20;;;;;;5035407;28;20377;-72
2023/07/06 08:01:23;;;;;;;1999.90;999.90;;;21.60;90.10;;;;;;5034929;28;20038;-70
2023/07/06 08:03:49;;;;;;;1999.90;999.90;;;21.60;90.70;;;;;;5035142;28;20430;-72
2023/07/06 08:06:18;;;;;;;1999.90;999.90;;;21.50;89.10;;;;;;5034839;28;20045;-72
2023/07/06 08:08:44;;;;;;;1999.90;999.90;;;21.70;90.00;;;;;;5035083;28;20463;-70
2023/07/06 08:11:22;;;;;;;1999.90;999.90;;;21.70;89.20;;;;;;5030285;28;20073;-71
2023/07/06 08:13:53;;;;;;;1999.90;999.90;;;21.90;90.00;;;;;;5019583;28;20038;-77
2023/07/06 08:16:21;;;;;;;1999.90;999.90;;;21.90;88.50;;;;;;5033564;28;20084;-70
2023/07/06 08:18:48;;;;;;;1999.90;999.90;;;21.80;88.10;;;;;;5035096;28;20029;-70
2023/07/06 08:21:14;;;;;;;1999.90;999.90;;;22.00;86.60;;;;;;5034873;28;20053;-70
2023/07/06 08:23:47;;;;;;;1999.90;999.90;;;22.20;86.30;;;;;;5035260;28;20109;-73
2023/07/06 08:26:13;;;;;;;1999.90;999.90;;;22.30;85.30;;;;;;5014734;28;20053;-74
2023/07/06 08:28:39;;;;;;;1999.90;999.90;;;22.60;83.50;;;;;;5014766;28;20054;-73
2023/07/06 08:31:12;;;;;;;1999.90;999.90;;;22.70;83.30;;;;;;5015699;28;20039;-73
2023/07/06 08:33:37;;;;;;;1999.90;999.90;;;22.80;82.20;;;;;;5016039;28;20031;-72
2023/07/06 08:36:04;;;;;;;1999.90;999.90;;;22.70;82.40;;;;;;5015370;28;20102;-74
2023/07/06 08:38:33;;;;;;;1999.90;999.90;;;22.80;82.10;;;;;;5016338;28;20034;-73
2023/07/06 08:41:03;;;;;;;1999.90;999.90;;;22.80;80.80;;;;;;5015354;28;20445;-73
2023/07/06 08:43:31;;;;;;;1999.90;999.90;;;22.70;81.70;;;;;;5015626;28;20531;-73
2023/07/06 08:46:00;;;;;;;1999.90;999.90;;;22.90;81.90;;;;;;5013985;28;20093;-73
2023/07/06 08:48:28;;;;;;;1999.90;999.90;;;22.90;79.00;;;;;;5017983;28;20899;-74
2023/07/06 08:50:58;;;;;;;1999.90;999.90;;;22.60;81.70;;;;;;5016023;28;20121;-73
2023/07/06 08:53:27;;;;;;;1999.90;999.90;;;23.00;81.50;;;;;;5016255;28;20034;-73
2023/07/06 08:55:54;;;;;;;1999.90;999.90;;;23.20;78.80;;;;;;5014648;28;20033;-75
2023/07/06 08:58:28;;;;;;;1999.90;999.90;;;23.70;78.80;;;;;;5014568;28;20117;-73
2023/07/06 09:01:17;;;;;;;1999.90;999.90;;;24.20;78.80;;;;;;5014620;28;20487;-74
2023/07/06 09:03:48;;;;;;;1999.90;999.90;;;24.40;75.70;;;;;;5013424;28;20097;-74
2023/07/06 09:06:20;;;;;;;1999.90;999.90;;;24.30;77.20;;;;;;5015075;28;20126;-74
2023/07/06 09:08:53;;;;;;;1999.90;999.90;;;24.30;75.40;;;;;;5014629;28;20030;-73
2023/07/06 09:11:22;;;;;;;1999.90;999.90;;;24.10;75.00;;;;;;5014473;28;20061;-73
2023/07/06 09:13:51;;;;;;;1999.90;999.90;;;24.40;74.80;;;;;;5014694;28;20034;-78
2023/07/06 09:16:20;;;;;;;1999.90;999.90;;;24.80;72.60;;;;;;5014797;28;20046;-73
2023/07/06 09:18:53;;;;;;;1999.90;999.90;;;24.60;72.80;;;;;;5014691;28;20026;-73
2023/07/06 09:21:25;;;;;;;1999.90;999.90;;;24.80;73.00;;;;;;5014185;28;20040;-74
2023/07/06 09:23:52;;;;;;;1999.90;999.90;;;24.70;71.60;;;;;;5014559;28;20081;-74
2023/07/06 09:26:38;;;;;;;1999.90;999.90;;;24.60;71.40;;;;;;5013689;28;20475;-73
2023/07/06 09:29:11;;;;;;;1999.90;999.90;;;24.70;72.50;;;;;;5022405;28;20050;-72
2023/07/06 09:31:37;;;;;;;1999.90;999.90;;;24.60;73.10;;;;;;5020883;28;20915;-73
2023/07/06 09:34:07;;;;;;;1999.90;999.90;;;24.90;72.70;;;;;;5023105;28;20042;-73
2023/07/06 09:36:33;;;;;;;1999.90;999.90;;;24.60;70.80;;;;;;5020592;28;20439;-73
2023/07/06 09:39:08;;;;;;;1999.90;999.90;;;24.70;71.60;;;;;;5026942;28;20026;-73
2023/07/06 09:41:37;;;;;;;1999.90;999.90;;;25.10;71.30;;;;;;5024724;28;20037;-73
2023/07/06 09:44:05;;;;;;;1999.90;999.90;;;25.60;69.50;;;;;;5026802;28;20030;-74
2023/07/06 09:46:35;;;;;;;1999.90;999.90;;;25.80;69.80;;;;;;5025841;28;20049;-74
2023/07/06 09:49:01;;;;;;;1999.90;999.90;;;25.50;67.50;;;;;;5027312;28;20033;-73
2023/07/06 09:51:37;;;;;;;1999.90;999.90;;;25.40;70.00;;;;;;5032974;28;20065;-73
2023/07/06 09:54:11;;;;;;;1999.90;999.90;;;25.40;69.30;;;;;;5024203;28;20034;-72
2023/07/06 09:56:37;;;;;;;1999.90;999.90;;;25.40;68.10;;;;;;5016810;28;20045;-73
2023/07/06 09:59:03;;;;;;;1999.90;999.90;;;25.60;69.20;;;;;;5016583;28;20034;-71
2023/07/06 10:01:53;;;;;;;1999.90;999.90;;;25.80;67.30;;;;;;5016276;28;20086;-72
2023/07/06 10:04:51;;;;;;;1999.90;999.90;;;26.00;68.90;;;;;;5015824;28;20465;-71
2023/07/06 10:07:37;;;;;;;1999.90;999.90;;;26.70;68.00;;;;;;5016516;28;20485;-72
2023/07/06 10:10:06;;;;;;;1999.90;999.90;;;26.60;66.40;;;;;;5016833;28;20125;-73
2023/07/06 10:12:48;;;;;;;1999.90;999.90;;;25.60;66.40;;;;;;5016132;28;20062;-72
2023/07/06 10:15:33;;;;;;;1999.90;999.90;;;24.70;69.90;;;;;;5016164;28;20042;-72
2023/07/06 10:18:11;;;;;;;1999.90;999.90;;;25.30;68.50;;;;;;5016363;28;20429;-73
2023/07/06 10:20:48;;;;;;;1999.90;999.90;;;26.00;66.30;;;;;;5016685;28;20031;-72
2023/07/06 10:23:20;;;;;;;1999.90;999.90;;;26.00;65.70;;;;;;5016210;28;20042;-72
2023/07/06 10:25:57;;;;;;;1999.90;999.90;;;26.10;65.10;;;;;;5016213;28;20140;-73
2023/07/06 10:28:33;;;;;;;1999.90;999.90;;;26.40;63.90;;;;;;5016246;28;20114;-72
2023/07/06 10:31:03;;;;;;;1999.90;999.90;;;26.70;62.50;;;;;;5016199;28;20042;-72
2023/07/06 10:33:37;;;;;;;1999.90;999.90;;;27.10;63.20;;;;;;5016583;28;20161;-82
2023/07/06 10:36:03;;;;;;;1999.90;999.90;;;27.00;61.90;;;;;;5014554;28;20505;-72
2023/07/06 10:38:28;;;;;;;1999.90;999.90;;;26.80;64.50;;;;;;5016624;28;20038;-77
2023/07/06 10:41:09;;;;;;;1999.90;999.90;;;27.00;64.40;;;;;;5025748;28;20044;-74
2023/07/06 10:43:38;;;;;;;1999.90;999.90;;;26.80;62.70;;;;;;5036436;28;20034;-77
2023/07/06 10:46:33;;;;;;;1999.90;999.90;;;27.20;61.00;;;;;;5036238;28;20034;-73
2023/07/06 10:49:20;;;;;;;1999.90;999.90;;;27.50;61.10;;;;;;5032208;28;20041;-71
2023/07/06 10:51:57;;;;;;;1999.90;999.90;;;27.80;59.90;;;;;;5024894;28;20045;-74
2023/07/06 10:54:32;;;;;;;1999.90;999.90;;;27.40;59.70;;;;;;5024333;28;20072;-75
2023/07/06 10:57:02;;;;;;;1999.90;999.90;;;27.10;61.50;;;;;;5030266;28;20091;-77
2023/07/06 10:59:44;;;;;;;1999.90;999.90;;;27.20;59.90;;;;;;5034993;28;20081;-78
2023/07/06 11:02:21;;;;;;;1999.90;999.90;;;26.80;58.30;;;;;;5035076;28;20042;-78
2023/07/06 11:05:16;;;;;;;1999.90;999.90;;;27.40;59.70;;;;;;5036062;28;20037;-80
2023/07/06 11:07:50;;;;;;;1999.90;999.90;;;27.30;57.80;;;;;;5036717;28;20026;-77
2023/07/06 11:10:19;;;;;;;1999.90;999.90;;;26.40;60.40;;;;;;5035580;28;20122;-80
2023/07/06 11:13:04;;;;;;;1999.90;999.90;;;26.60;60.60;;;;;;5036869;28;20030;-78
2023/07/06 11:15:35;;;;;;;1999.90;999.90;;;26.60;60.60;;;;;;5035593;28;20044;-75
2023/07/06 11:18:21;;;;;;;1999.90;999.90;;;26.30;60.30;;;;;;5035975;28;20029;-75
2023/07/06 11:20:50;;;;;;;1999.90;999.90;;;25.40;61.00;;;;;;5027648;28;20037;-72
2023/07/06 11:23:20;;;;;;;1999.90;999.90;;;25.20;64.40;;;;;;5035425;28;20036;-75
2023/07/06 11:25:50;;;;;;;1999.90;999.90;;;25.70;62.70;;;;;;5035335;28;20124;-75
2023/07/06 11:28:23;;;;;;;1999.90;999.90;;;26.60;63.70;;;;;;5035618;28;20026;-75
2023/07/06 11:31:02;;;;;;;1999.90;999.90;;;26.90;57.70;;;;;;5035409;28;20598;-76
2023/07/06 11:33:53;;;;;;;1999.90;999.90;;;27.40;60.60;;;;;;5035680;28;20033;-76
2023/07/06 11:36:42;;;;;;;1999.90;999.90;;;27.90;58.30;;;;;;5035447;28;20162;-74
2023/07/06 11:39:15;;;;;;;1999.90;999.90;;;28.30;56.60;;;;;;5035438;28;20025;-76
2023/07/06 11:41:53;;;;;;;1999.90;999.90;;;28.70;56.00;;;;;;5035520;28;20026;-76
2023/07/06 11:45:01;;;;;;;1999.90;999.90;;;29.20;54.10;;;;;;5028248;28;20114;-76
2023/07/06 11:47:40;;;;;;;1999.90;999.90;;;28.40;55.80;;;;;;4992097;28;20084;-74
2023/07/06 11:50:12;;;;;;;1999.90;999.90;;;26.70;59.00;;;;;;5019658;28;20081;-74
2023/07/06 11:52:42;;;;;;;1999.90;999.90;;;26.70;58.80;;;;;;5023224;28;20033;-74
2023/07/06 11:55:39;;;;;;;1999.90;999.90;;;27.00;59.00;;;;;;5023343;28;20026;-74
2023/07/06 11:58:28;;;;;;;1999.90;999.90;;;27.70;63.00;;;;;;5028155;28;20530;-74
2023/07/06 12:01:01;;;;;;;1999.90;999.90;;;28.50;55.20;;;;;;5034207;28;20033;-74
2023/07/06 12:03:29;;;;;;;1999.90;999.90;;;28.50;54.10;;;;;;5024800;28;20045;-74
2023/07/06 12:05:59;;;;;;;1999.90;999.90;;;28.70;57.20;;;;;;5024517;28;20035;-74
2023/07/06 12:08:29;;;;;;;1999.90;999.90;;;29.00;54.60;;;;;;5023197;28;20417;-75
2023/07/06 12:11:19;;;;;;;1999.90;999.90;;;28.90;57.20;;;;;;5021211;28;20531;-75
2023/07/06 12:13:52;;;;;;;1999.90;999.90;;;29.20;54.20;;;;;;5020702;28;20045;-75